createdAt,value
2022-12-08T00:00:21.308Z,7.11
2022-12-08T00:01:22.282Z,7.49
2022-12-08T00:02:16.349Z,7.60
2022-12-08T00:03:10.558Z,8.16
2022-12-08T00:04:05.313Z,8.39
2022-12-08T00:05:06.684Z,8.27
2022-12-08T00:06:14.332Z,8.11
2022-12-08T00:07:13.348Z,7.89
2022-12-08T00:08:11.971Z,7.71
2022-12-08T00:09:12.312Z,7.70
2022-12-08T00:09:52.339Z,7.66
2022-12-08T00:10:49.458Z,7.70
2022-12-08T00:11:30.347Z,7.63
2022-12-08T00:12:23.316Z,7.81
2022-12-08T00:13:03.381Z,8.00
2022-12-08T00:13:44.345Z,7.68
2022-12-08T00:14:24.434Z,7.88
2022-12-08T00:15:05.549Z,7.82
2022-12-08T00:15:46.276Z,7.94
2022-12-08T00:16:20.414Z,7.72
2022-12-08T00:17:08.401Z,8.11
2022-12-08T00:17:42.399Z,8.29
2022-12-08T00:18:29.264Z,7.75
2022-12-08T00:19:03.364Z,7.76
2022-12-08T00:19:51.294Z,8.00
2022-12-08T00:20:25.409Z,8.15
2022-12-08T00:21:06.333Z,8.26
2022-12-08T00:21:46.361Z,8.35
2022-12-08T00:22:26.314Z,8.18
2022-12-08T00:23:06.370Z,7.95
2022-12-08T00:23:46.279Z,8.13
2022-12-08T00:24:27.330Z,8.77
2022-12-08T00:25:08.252Z,8.57
2022-12-08T00:25:48.338Z,8.54
2022-12-08T00:26:29.267Z,8.96
2022-12-08T00:27:09.323Z,9.16
2022-12-08T00:27:50.277Z,9.77
2022-12-08T00:28:30.357Z,9.11
2022-12-08T00:29:17.047Z,8.26
2022-12-08T00:29:57.309Z,8.36
2022-12-08T00:30:38.264Z,8.43
2022-12-08T00:31:19.518Z,8.23
2022-12-08T00:32:00.358Z,7.76
2022-12-08T00:32:54.289Z,6.93
2022-12-08T00:33:48.248Z,6.84
2022-12-08T00:34:42.304Z,7.14
2022-12-08T00:35:41.528Z,7.19
2022-12-08T00:36:37.296Z,7.18
2022-12-08T00:37:24.283Z,7.11
2022-12-08T00:38:00.945Z,7.46
2022-12-08T00:38:49.282Z,7.89
2022-12-08T00:39:24.432Z,8.24
2022-12-08T00:40:12.268Z,8.10
2022-12-08T00:40:53.628Z,8.20
2022-12-08T00:41:59.342Z,8.41
2022-12-08T00:42:40.354Z,8.81
2022-12-08T00:43:34.268Z,8.80
2022-12-08T00:44:31.245Z,8.81
2022-12-08T00:45:26.298Z,8.40
2022-12-08T00:46:20.326Z,8.18
2022-12-08T00:47:14.235Z,7.97
2022-12-08T00:48:01.299Z,8.05
2022-12-08T00:48:35.318Z,8.01
2022-12-08T00:49:23.220Z,8.11
2022-12-08T00:49:57.347Z,8.01
2022-12-08T00:50:45.235Z,8.38
2022-12-08T00:51:19.398Z,8.18
2022-12-08T00:52:07.243Z,8.07
2022-12-08T00:52:41.355Z,8.44
2022-12-08T00:53:22.334Z,7.99
2022-12-08T00:54:02.360Z,7.89
2022-12-08T00:54:42.247Z,7.88
2022-12-08T00:55:22.330Z,8.02
2022-12-08T00:56:02.216Z,8.36
2022-12-08T00:56:42.325Z,8.48
2022-12-08T00:57:23.218Z,8.05
2022-12-08T00:58:03.329Z,8.15
2022-12-08T00:58:43.372Z,8.10
2022-12-08T00:59:23.291Z,8.43
2022-12-08T01:00:04.470Z,8.49
2022-12-08T01:00:48.443Z,8.38
2022-12-08T01:01:29.237Z,8.57
2022-12-08T01:02:10.301Z,8.45
2022-12-08T01:02:50.286Z,8.52
2022-12-08T01:03:30.537Z,8.52
2022-12-08T01:04:22.275Z,8.61
2022-12-08T01:05:02.310Z,8.63
2022-12-08T01:05:42.259Z,7.75
2022-12-08T01:06:22.288Z,7.61
2022-12-08T01:07:03.322Z,7.34
2022-12-08T01:07:43.514Z,7.26
2022-12-08T01:08:23.288Z,6.82
2022-12-08T01:09:03.298Z,6.74
2022-12-08T01:09:43.207Z,6.53
2022-12-08T01:10:23.324Z,6.35
2022-12-08T01:11:04.258Z,6.47
2022-12-08T01:11:45.354Z,6.54
2022-12-08T01:12:26.214Z,6.61
2022-12-08T01:13:06.362Z,6.84
2022-12-08T01:13:47.251Z,6.82
2022-12-08T01:14:27.384Z,6.86
2022-12-08T01:15:07.214Z,6.88
2022-12-08T01:15:47.289Z,6.46
2022-12-08T01:16:31.250Z,6.80
2022-12-08T01:17:11.358Z,6.47
2022-12-08T01:17:51.220Z,6.74
2022-12-08T01:18:31.323Z,6.82
2022-12-08T01:19:11.258Z,6.56
2022-12-08T01:19:51.255Z,6.54
2022-12-08T01:20:31.240Z,6.78
2022-12-08T01:21:14.441Z,6.91
2022-12-08T01:21:55.225Z,6.95
2022-12-08T01:22:36.044Z,6.76
2022-12-08T01:23:16.213Z,6.80
2022-12-08T01:23:58.028Z,6.95
2022-12-08T01:24:39.208Z,7.22
2022-12-08T01:25:19.436Z,7.40
2022-12-08T01:26:00.243Z,7.51
2022-12-08T01:26:40.315Z,7.30
2022-12-08T01:27:23.187Z,7.54
2022-12-08T01:28:03.295Z,7.82
2022-12-08T01:28:43.175Z,8.05
2022-12-08T01:29:23.261Z,7.96
2022-12-08T01:30:03.519Z,7.79
2022-12-08T01:30:47.354Z,8.25
2022-12-08T01:31:29.274Z,8.44
2022-12-08T01:32:09.440Z,8.43
2022-12-08T01:32:50.221Z,8.49
2022-12-08T01:33:31.372Z,8.57
2022-12-08T01:34:12.187Z,8.64
2022-12-08T01:34:53.389Z,8.46
2022-12-08T01:35:34.221Z,8.69
2022-12-08T01:36:16.250Z,8.44
2022-12-08T01:36:56.232Z,7.90
2022-12-08T01:37:36.236Z,8.41
2022-12-08T01:38:17.211Z,8.39
2022-12-08T01:38:58.295Z,8.38
2022-12-08T01:39:39.206Z,8.25
2022-12-08T01:40:19.308Z,8.25
2022-12-08T01:40:59.255Z,8.43
2022-12-08T01:41:43.585Z,8.15
2022-12-08T01:42:30.184Z,8.21
2022-12-08T01:43:10.307Z,7.81
2022-12-08T01:44:15.191Z,7.31
2022-12-08T01:45:08.282Z,7.56
2022-12-08T01:45:48.254Z,7.53
2022-12-08T01:46:29.402Z,6.94
2022-12-08T01:47:09.199Z,6.66
2022-12-08T01:47:52.278Z,6.68
2022-12-08T01:48:33.261Z,6.78
2022-12-08T01:49:38.260Z,6.56
2022-12-08T01:50:15.258Z,6.43
2022-12-08T01:51:03.204Z,6.64
2022-12-08T01:51:42.283Z,6.72
2022-12-08T01:52:36.175Z,6.70
2022-12-08T01:53:35.335Z,6.51
2022-12-08T01:54:29.200Z,6.15
2022-12-08T01:55:49.193Z,6.20
2022-12-08T01:57:14.164Z,6.36
2022-12-08T01:58:14.190Z,6.00
2022-12-08T01:58:57.207Z,6.39
2022-12-08T01:59:41.436Z,6.65
2022-12-08T02:00:25.177Z,6.75
2022-12-08T02:01:05.342Z,6.49
2022-12-08T02:01:46.279Z,6.71
2022-12-08T02:02:27.310Z,6.91
2022-12-08T02:03:11.183Z,6.99
2022-12-08T02:04:06.226Z,7.11
2022-12-08T02:05:00.191Z,7.29
2022-12-08T02:05:55.228Z,7.50
2022-12-08T02:06:54.205Z,7.82
2022-12-08T02:07:49.305Z,7.85
2022-12-08T02:08:45.200Z,7.46
2022-12-08T02:09:27.193Z,6.80
2022-12-08T02:10:07.359Z,6.34
2022-12-08T02:10:50.154Z,6.45
2022-12-08T02:11:30.239Z,6.50
2022-12-08T02:12:11.166Z,6.56
2022-12-08T02:12:51.315Z,6.55
2022-12-08T02:13:31.177Z,6.72
2022-12-08T02:14:14.216Z,6.19
2022-12-08T02:14:54.196Z,6.10
2022-12-08T02:15:56.387Z,6.66
2022-12-08T02:16:58.189Z,6.69
2022-12-08T02:18:12.199Z,6.40
2022-12-08T02:19:38.182Z,6.28
2022-12-08T02:20:29.163Z,5.86
2022-12-08T02:21:16.238Z,5.95
2022-12-08T02:22:39.167Z,5.91
2022-12-08T02:23:33.268Z,5.86
2022-12-08T02:24:41.163Z,5.95
2022-12-08T02:25:28.278Z,6.00
2022-12-08T02:27:09.169Z,6.06
2022-12-08T02:28:17.208Z,5.75
2022-12-08T02:29:46.257Z,5.69
2022-12-08T02:31:01.240Z,6.05
2022-12-08T02:32:37.148Z,5.70
2022-12-08T02:34:12.200Z,5.47
2022-12-08T02:35:14.164Z,5.44
2022-12-08T02:36:28.150Z,5.24
2022-12-08T02:37:35.141Z,5.44
2022-12-08T02:38:30.208Z,5.66
2022-12-08T02:39:34.256Z,5.74
2022-12-08T02:40:43.170Z,5.79
2022-12-08T02:41:38.374Z,5.88
2022-12-08T02:42:48.180Z,5.97
2022-12-08T02:43:34.180Z,5.85
2022-12-08T02:44:42.091Z,6.01
2022-12-08T02:45:52.245Z,6.19
2022-12-08T02:46:39.115Z,6.28
2022-12-08T02:47:23.180Z,6.24
2022-12-08T02:48:05.115Z,6.45
2022-12-08T02:48:45.258Z,6.47
2022-12-08T02:49:26.134Z,6.30
2022-12-08T02:50:08.335Z,6.28
2022-12-08T02:50:49.114Z,5.96
2022-12-08T02:51:29.155Z,6.36
2022-12-08T02:52:38.150Z,6.41
2022-12-08T02:53:25.115Z,6.26
2022-12-08T02:54:19.108Z,6.39
2022-12-08T02:55:20.161Z,6.36
2022-12-08T02:56:45.166Z,6.19
2022-12-08T02:57:54.304Z,6.15
2022-12-08T02:59:18.209Z,6.61
2022-12-08T03:00:12.178Z,6.69
2022-12-08T03:01:21.228Z,6.57
2022-12-08T03:02:33.236Z,6.45
2022-12-08T03:03:42.121Z,6.70
2022-12-08T03:04:57.162Z,6.39
2022-12-08T03:06:07.123Z,6.71
2022-12-08T03:07:19.141Z,6.69
2022-12-08T03:08:22.190Z,7.14
2022-12-08T03:09:47.122Z,6.76
2022-12-08T03:10:39.123Z,6.63
2022-12-08T03:11:31.135Z,6.50
2022-12-08T03:12:42.139Z,6.71
2022-12-08T03:13:32.163Z,6.90
2022-12-08T03:14:14.071Z,6.82
2022-12-08T03:14:59.196Z,6.63
2022-12-08T03:15:41.144Z,6.64
2022-12-08T03:16:27.207Z,6.99
2022-12-08T03:17:08.103Z,7.05
2022-12-08T03:17:54.324Z,7.09
2022-12-08T03:18:37.088Z,7.13
2022-12-08T03:19:26.201Z,6.86
2022-12-08T03:20:11.074Z,7.03
2022-12-08T03:21:00.127Z,6.99
2022-12-08T03:21:55.104Z,6.90
2022-12-08T03:22:49.125Z,6.94
2022-12-08T03:23:44.095Z,6.93
2022-12-08T03:24:38.175Z,6.91
2022-12-08T03:25:37.057Z,6.59
2022-12-08T03:26:43.099Z,6.60
2022-12-08T03:27:23.112Z,6.97
2022-12-08T03:28:11.099Z,7.01
2022-12-08T03:28:45.092Z,7.36
2022-12-08T03:29:32.312Z,7.39
2022-12-08T03:30:07.450Z,7.38
2022-12-08T03:30:56.227Z,7.72
2022-12-08T03:31:34.319Z,7.28
2022-12-08T03:32:46.084Z,7.13
2022-12-08T03:33:32.142Z,6.90
2022-12-08T03:34:13.104Z,6.61
2022-12-08T03:34:55.145Z,6.69
2022-12-08T03:35:39.071Z,6.64
2022-12-08T03:36:20.150Z,6.51
2022-12-08T03:37:01.049Z,6.47
2022-12-08T03:37:53.103Z,6.51
2022-12-08T03:38:56.046Z,6.35
2022-12-08T03:39:50.068Z,6.20
2022-12-08T03:40:44.055Z,6.57
2022-12-08T03:41:38.080Z,6.30
2022-12-08T03:42:32.050Z,6.34
2022-12-08T03:43:13.057Z,6.30
2022-12-08T03:44:00.133Z,6.25
2022-12-08T03:44:41.071Z,6.36
2022-12-08T03:45:21.556Z,5.82
2022-12-08T03:46:01.124Z,5.74
2022-12-08T03:46:41.275Z,6.19
2022-12-08T03:47:21.065Z,6.29
2022-12-08T03:48:01.120Z,6.05
2022-12-08T03:48:41.105Z,6.28
2022-12-08T03:49:21.078Z,5.97
2022-12-08T03:50:01.147Z,5.93
2022-12-08T03:50:41.071Z,6.25
2022-12-08T03:51:22.167Z,6.14
2022-12-08T03:52:02.192Z,6.01
2022-12-08T03:52:42.034Z,5.89
2022-12-08T03:53:22.275Z,5.91
2022-12-08T03:54:03.158Z,6.05
2022-12-08T03:54:43.179Z,6.03
2022-12-08T03:55:24.092Z,6.05
2022-12-08T03:56:04.322Z,5.95
2022-12-08T03:56:46.050Z,6.22
2022-12-08T03:57:26.111Z,6.18
2022-12-08T03:58:06.055Z,6.03
2022-12-08T03:58:47.059Z,5.99
2022-12-08T03:59:27.113Z,6.10
2022-12-08T04:00:07.363Z,6.22
2022-12-08T04:00:48.064Z,6.36
2022-12-08T04:01:29.243Z,6.35
2022-12-08T04:02:09.118Z,6.71
2022-12-08T04:02:49.141Z,6.69
2022-12-08T04:03:30.094Z,6.79
2022-12-08T04:04:11.494Z,6.78
2022-12-08T04:04:51.068Z,6.63
2022-12-08T04:05:31.192Z,6.70
2022-12-08T04:06:12.002Z,6.80
2022-12-08T04:06:52.199Z,7.04
2022-12-08T04:07:32.045Z,7.19
2022-12-08T04:08:12.116Z,6.93
2022-12-08T04:08:52.032Z,6.71
2022-12-08T04:09:32.090Z,6.91
2022-12-08T04:10:13.074Z,6.95
2022-12-08T04:10:53.072Z,6.82
2022-12-08T04:11:33.090Z,6.74
2022-12-08T04:12:14.096Z,6.90
2022-12-08T04:12:55.037Z,7.15
2022-12-08T04:13:36.104Z,7.00
2022-12-08T04:14:17.037Z,7.09
2022-12-08T04:14:57.140Z,6.75
2022-12-08T04:15:37.105Z,6.72
2022-12-08T04:16:27.959Z,6.81
2022-12-08T04:17:09.042Z,6.71
2022-12-08T04:17:50.082Z,7.32
2022-12-08T04:18:30.011Z,6.99
2022-12-08T04:19:10.061Z,6.57
2022-12-08T04:19:50.043Z,6.53
2022-12-08T04:20:30.191Z,7.06
2022-12-08T04:21:10.052Z,6.63
2022-12-08T04:21:50.118Z,6.90
2022-12-08T04:22:31.032Z,6.76
2022-12-08T04:23:12.290Z,6.75
2022-12-08T04:24:00.627Z,6.84
2022-12-08T04:24:41.123Z,6.99
2022-12-08T04:25:21.973Z,7.26
2022-12-08T04:26:02.091Z,7.21
2022-12-08T04:26:42.091Z,6.99
2022-12-08T04:27:22.150Z,7.40
2022-12-08T04:28:03.048Z,7.97
2022-12-08T04:28:43.065Z,8.20
2022-12-08T04:29:23.037Z,7.88
2022-12-08T04:30:03.632Z,8.01
2022-12-08T04:30:43.996Z,7.85
2022-12-08T04:31:24.111Z,8.05
2022-12-08T04:32:05.067Z,8.60
2022-12-08T04:32:47.483Z,8.18
2022-12-08T04:33:28.032Z,8.11
2022-12-08T04:34:08.291Z,8.49
2022-12-08T04:34:48.049Z,8.31
2022-12-08T04:35:28.158Z,7.96
2022-12-08T04:36:10.973Z,8.11
2022-12-08T04:36:51.107Z,8.49
2022-12-08T04:37:32.034Z,8.13
2022-12-08T04:38:12.041Z,8.23
2022-12-08T04:38:51.996Z,8.11
2022-12-08T04:39:32.059Z,7.95
2022-12-08T04:40:12.995Z,8.19
2022-12-08T04:40:53.102Z,8.68
2022-12-08T04:41:34.008Z,7.97
2022-12-08T04:42:14.075Z,8.09
2022-12-08T04:42:54.007Z,8.29
2022-12-08T04:43:34.121Z,8.29
2022-12-08T04:44:14.050Z,8.65
2022-12-08T04:44:54.136Z,8.52
2022-12-08T04:45:34.022Z,8.86
2022-12-08T04:46:15.141Z,8.63
2022-12-08T04:46:55.018Z,8.71
2022-12-08T04:47:35.106Z,8.55
2022-12-08T04:48:19.008Z,8.73
2022-12-08T04:48:59.054Z,8.44
2022-12-08T04:49:39.007Z,8.64
2022-12-08T04:50:19.049Z,8.39
2022-12-08T04:51:00.019Z,8.04
2022-12-08T04:51:40.063Z,7.89
2022-12-08T04:52:20.003Z,7.78
2022-12-08T04:53:00.097Z,7.81
2022-12-08T04:53:46.312Z,7.88
2022-12-08T04:54:27.064Z,8.04
2022-12-08T04:55:07.992Z,8.36
2022-12-08T04:55:51.308Z,8.32
2022-12-08T04:56:31.975Z,8.30
2022-12-08T04:57:12.027Z,8.71
2022-12-08T04:57:52.962Z,8.77
2022-12-08T04:58:33.139Z,8.79
2022-12-08T04:59:13.032Z,8.80
2022-12-08T04:59:53.096Z,9.00
2022-12-08T05:00:33.990Z,9.18
2022-12-08T05:01:14.102Z,9.45
2022-12-08T05:01:54.125Z,9.15
2022-12-08T05:02:34.124Z,8.88
2022-12-08T05:03:15.020Z,9.18
2022-12-08T05:03:55.009Z,9.39
2022-12-08T05:04:35.059Z,9.48
2022-12-08T05:05:16.088Z,9.11
2022-12-08T05:05:57.008Z,8.45
2022-12-08T05:06:37.210Z,8.56
2022-12-08T05:07:18.065Z,8.64
2022-12-08T05:07:58.164Z,8.26
2022-12-08T05:08:40.012Z,8.04
2022-12-08T05:09:20.341Z,8.43
2022-12-08T05:10:01.254Z,8.29
2022-12-08T05:10:43.019Z,8.10
2022-12-08T05:11:22.959Z,8.20
2022-12-08T05:12:03.019Z,8.04
2022-12-08T05:12:42.973Z,8.06
2022-12-08T05:13:23.086Z,8.36
2022-12-08T05:14:02.963Z,7.96
2022-12-08T05:14:43.983Z,7.91
2022-12-08T05:15:25.092Z,7.41
2022-12-08T05:16:13.242Z,7.61
2022-12-08T05:16:54.017Z,7.55
2022-12-08T05:17:34.049Z,7.74
2022-12-08T05:18:14.961Z,7.39
2022-12-08T05:18:55.148Z,7.56
2022-12-08T05:19:36.043Z,7.26
2022-12-08T05:20:17.119Z,7.18
2022-12-08T05:20:57.002Z,7.52
2022-12-08T05:21:37.024Z,7.61
2022-12-08T05:22:16.940Z,7.45
2022-12-08T05:22:57.000Z,7.38
2022-12-08T05:23:36.976Z,7.66
2022-12-08T05:24:18.060Z,7.57
2022-12-08T05:24:57.989Z,7.45
2022-12-08T05:25:38.093Z,7.54
2022-12-08T05:26:17.984Z,7.44
2022-12-08T05:26:57.968Z,7.04
2022-12-08T05:27:37.960Z,6.81
2022-12-08T05:28:40.715Z,7.49
2022-12-08T05:29:18.936Z,8.00
2022-12-08T05:29:59.021Z,7.26
2022-12-08T05:30:38.950Z,7.06
2022-12-08T05:31:28.118Z,7.53
2022-12-08T05:32:21.948Z,7.39
2022-12-08T05:33:16.119Z,7.10
2022-12-08T05:34:09.986Z,6.78
2022-12-08T05:35:03.928Z,6.94
2022-12-08T05:35:58.921Z,6.91
2022-12-08T05:36:46.935Z,6.39
2022-12-08T05:37:21.328Z,6.19
2022-12-08T05:38:07.950Z,6.53
2022-12-08T05:38:42.005Z,6.74
2022-12-08T05:39:28.956Z,6.72
2022-12-08T05:40:03.388Z,6.80
2022-12-08T05:40:50.916Z,6.86
2022-12-08T05:41:26.992Z,7.22
2022-12-08T05:42:06.954Z,6.99
2022-12-08T05:42:47.002Z,6.75
2022-12-08T05:43:27.913Z,6.65
2022-12-08T05:44:08.048Z,6.81
2022-12-08T05:44:47.941Z,6.61
2022-12-08T05:45:28.127Z,6.84
2022-12-08T05:46:09.024Z,7.25
2022-12-08T05:46:49.100Z,7.26
2022-12-08T05:47:35.738Z,7.82
2022-12-08T05:48:16.986Z,7.65
2022-12-08T05:48:57.943Z,7.60
2022-12-08T05:49:39.077Z,7.74
2022-12-08T05:50:18.923Z,7.74
2022-12-08T05:50:59.988Z,7.88
2022-12-08T05:51:39.956Z,7.69
2022-12-08T05:52:20.053Z,8.09
2022-12-08T05:53:00.969Z,8.40
2022-12-08T05:53:40.973Z,8.26
2022-12-08T05:54:20.921Z,8.43
2022-12-08T05:55:01.112Z,8.85
2022-12-08T05:55:40.906Z,8.45
2022-12-08T05:56:21.006Z,8.81
2022-12-08T05:57:00.903Z,8.91
2022-12-08T05:57:41.008Z,9.14
2022-12-08T05:58:27.975Z,9.25
2022-12-08T05:59:07.968Z,9.34
2022-12-08T05:59:47.939Z,9.40
2022-12-08T06:00:27.928Z,10.15
2022-12-08T06:01:07.887Z,10.02
2022-12-08T06:01:48.090Z,10.02
2022-12-08T06:02:28.987Z,10.02
2022-12-08T06:03:09.659Z,9.88
2022-12-08T06:03:49.978Z,10.01
2022-12-08T06:04:29.973Z,10.26
2022-12-08T06:05:10.948Z,10.27
2022-12-08T06:05:53.011Z,10.18
2022-12-08T06:06:34.907Z,9.89
2022-12-08T06:07:16.360Z,10.20
2022-12-08T06:07:56.909Z,10.39
2022-12-08T06:08:36.969Z,10.09
2022-12-08T06:09:19.001Z,9.89
2022-12-08T06:09:59.085Z,9.85
2022-12-08T06:10:38.884Z,9.86
2022-12-08T06:11:27.933Z,9.99
2022-12-08T06:12:08.938Z,9.77
2022-12-08T06:12:48.980Z,9.75
2022-12-08T06:13:28.928Z,9.56
2022-12-08T06:14:08.946Z,9.73
2022-12-08T06:14:48.956Z,10.38
2022-12-08T06:15:28.959Z,9.70
2022-12-08T06:16:12.935Z,9.69
2022-12-08T06:16:54.052Z,9.46
2022-12-08T06:17:34.932Z,9.60
2022-12-08T06:18:16.033Z,9.71
2022-12-08T06:18:56.954Z,9.75
2022-12-08T06:19:36.943Z,10.14
2022-12-08T06:20:16.948Z,10.04
2022-12-08T06:20:56.941Z,10.40
2022-12-08T06:21:37.905Z,10.71
2022-12-08T06:22:17.937Z,11.29
2022-12-08T06:22:57.919Z,11.45
2022-12-08T06:23:37.972Z,11.68
2022-12-08T06:24:17.895Z,11.75
2022-12-08T06:24:57.975Z,12.00
2022-12-08T06:25:37.917Z,12.24
2022-12-08T06:26:20.913Z,11.93
2022-12-08T06:27:00.863Z,11.40
2022-12-08T06:27:40.959Z,11.21
2022-12-08T06:28:20.878Z,11.01
2022-12-08T06:29:00.991Z,10.05
2022-12-08T06:29:40.895Z,9.51
2022-12-08T06:30:23.131Z,8.95
2022-12-08T06:31:03.956Z,8.41
2022-12-08T06:31:45.095Z,8.52
2022-12-08T06:32:27.583Z,8.31
2022-12-08T06:33:07.979Z,7.95
2022-12-08T06:33:48.876Z,8.01
2022-12-08T06:34:28.956Z,7.84
2022-12-08T06:35:09.915Z,7.61
2022-12-08T06:35:50.031Z,7.49
2022-12-08T06:36:33.968Z,7.35
2022-12-08T06:37:27.903Z,7.41
2022-12-08T06:38:21.904Z,7.43
2022-12-08T06:39:15.855Z,7.56
2022-12-08T06:40:09.877Z,7.55
2022-12-08T06:41:11.908Z,8.01
2022-12-08T06:42:17.996Z,8.60
2022-12-08T06:42:51.941Z,8.96
2022-12-08T06:43:39.892Z,10.06
2022-12-08T06:44:14.010Z,9.93
2022-12-08T06:45:01.905Z,10.01
2022-12-08T06:45:36.029Z,10.13
2022-12-08T06:46:25.956Z,10.31
2022-12-08T06:47:00.008Z,10.49
2022-12-08T06:47:39.921Z,10.68
2022-12-08T06:48:20.920Z,10.19
2022-12-08T06:49:00.872Z,10.10
2022-12-08T06:49:44.137Z,9.95
2022-12-08T06:50:24.886Z,9.77
2022-12-08T06:51:13.109Z,9.29
2022-12-08T06:51:53.880Z,8.73
2022-12-08T06:52:39.089Z,8.75
2022-12-08T06:53:25.883Z,9.09
2022-12-08T06:54:06.095Z,9.36
2022-12-08T06:54:45.825Z,9.21
2022-12-08T06:55:51.256Z,8.93
2022-12-08T06:56:26.871Z,9.29
2022-12-08T06:57:07.976Z,9.21
2022-12-08T06:57:47.890Z,8.98
2022-12-08T06:58:35.869Z,9.11
2022-12-08T06:59:29.876Z,8.91
2022-12-08T07:00:24.874Z,8.81
2022-12-08T07:01:24.914Z,9.36
2022-12-08T07:02:19.897Z,9.71
2022-12-08T07:03:13.846Z,9.65
2022-12-08T07:04:00.919Z,9.84
2022-12-08T07:04:35.100Z,10.35
2022-12-08T07:05:21.849Z,10.75
2022-12-08T07:06:05.001Z,10.85
2022-12-08T07:06:45.851Z,11.09
2022-12-08T07:07:25.917Z,11.49
2022-12-08T07:08:05.857Z,11.27
2022-12-08T07:08:45.863Z,10.95
2022-12-08T07:09:25.921Z,11.71
2022-12-08T07:10:10.096Z,11.64
2022-12-08T07:10:49.841Z,11.01
2022-12-08T07:11:30.884Z,10.98
2022-12-08T07:12:11.857Z,10.60
2022-12-08T07:12:52.940Z,10.54
2022-12-08T07:13:33.863Z,10.69
2022-12-08T07:14:15.130Z,11.34
2022-12-08T07:14:54.860Z,11.55
2022-12-08T07:15:36.019Z,12.21
2022-12-08T07:16:18.918Z,12.56
2022-12-08T07:16:59.023Z,12.85
2022-12-08T07:17:38.868Z,13.26
2022-12-08T07:18:18.945Z,13.54
2022-12-08T07:18:58.866Z,14.19
2022-12-08T07:19:39.890Z,14.70
2022-12-08T07:20:19.807Z,13.90
2022-12-08T07:20:59.869Z,13.84
2022-12-08T07:21:39.816Z,14.36
2022-12-08T07:22:19.980Z,14.31
2022-12-08T07:23:00.875Z,14.60
2022-12-08T07:23:42.928Z,14.46
2022-12-08T07:24:23.841Z,14.14
2022-12-08T07:25:04.856Z,14.38
2022-12-08T07:25:44.839Z,14.44
2022-12-08T07:26:26.899Z,13.43
2022-12-08T07:27:07.805Z,13.66
2022-12-08T07:27:48.079Z,14.20
2022-12-08T07:28:28.819Z,14.75
2022-12-08T07:29:10.214Z,14.95
2022-12-08T07:29:50.831Z,14.44
2022-12-08T07:30:30.891Z,14.29
2022-12-08T07:31:11.971Z,13.77
2022-12-08T07:31:52.097Z,13.30
2022-12-08T07:32:32.870Z,13.59
2022-12-08T07:33:12.853Z,13.74
2022-12-08T07:33:53.818Z,13.43
2022-12-08T07:34:34.847Z,13.41
2022-12-08T07:35:15.834Z,13.04
2022-12-08T07:36:07.931Z,13.26
2022-12-08T07:36:47.843Z,13.52
2022-12-08T07:37:29.019Z,13.55
2022-12-08T07:38:09.828Z,13.46
2022-12-08T07:38:50.867Z,13.56
2022-12-08T07:39:30.804Z,13.65
2022-12-08T07:40:14.132Z,13.50
2022-12-08T07:40:54.843Z,13.26
2022-12-08T07:41:34.975Z,13.00
2022-12-08T07:42:14.933Z,12.61
2022-12-08T07:42:54.933Z,12.77
2022-12-08T07:43:34.803Z,13.23
2022-12-08T07:44:17.248Z,12.98
2022-12-08T07:44:57.809Z,12.26
2022-12-08T07:45:37.863Z,12.66
2022-12-08T07:46:27.961Z,13.44
2022-12-08T07:47:07.906Z,13.20
2022-12-08T07:47:54.861Z,12.70
2022-12-08T07:48:28.913Z,12.84
2022-12-08T07:49:15.827Z,13.16
2022-12-08T07:49:49.874Z,13.70
2022-12-08T07:50:36.791Z,13.21
2022-12-08T07:51:13.037Z,13.77
2022-12-08T07:52:01.788Z,13.93
2022-12-08T07:52:35.953Z,13.60
2022-12-08T07:53:15.826Z,13.68
2022-12-08T07:53:58.853Z,14.01
2022-12-08T07:54:38.828Z,14.26
2022-12-08T07:55:18.857Z,13.98
2022-12-08T07:55:59.805Z,13.86
2022-12-08T07:56:42.164Z,14.44
2022-12-08T07:57:22.810Z,14.13
2022-12-08T07:58:02.944Z,14.09
2022-12-08T07:58:43.833Z,14.35
2022-12-08T07:59:23.916Z,14.19
2022-12-08T08:00:04.088Z,14.19
2022-12-08T08:00:44.872Z,13.93
2022-12-08T08:01:36.009Z,14.05
2022-12-08T08:02:26.523Z,14.36
2022-12-08T08:03:07.850Z,14.59
2022-12-08T08:03:54.807Z,14.93
2022-12-08T08:04:48.923Z,15.79
2022-12-08T08:05:43.792Z,16.23
2022-12-08T08:06:38.803Z,15.73
2022-12-08T08:07:34.934Z,15.54
2022-12-08T08:08:29.910Z,15.85
2022-12-08T08:09:16.797Z,14.41
2022-12-08T08:09:50.841Z,13.82
2022-12-08T08:10:38.834Z,14.18
2022-12-08T08:11:20.985Z,14.24
2022-12-08T08:12:30.131Z,14.29
2022-12-08T08:13:05.897Z,14.04
2022-12-08T08:13:56.836Z,14.15
2022-12-08T08:14:37.884Z,14.14
2022-12-08T08:15:31.996Z,14.50
2022-12-08T08:16:25.938Z,14.39
2022-12-08T08:17:19.864Z,13.91
2022-12-08T08:18:16.770Z,13.86
2022-12-08T08:19:10.830Z,14.46
2022-12-08T08:19:58.785Z,15.26
2022-12-08T08:20:32.851Z,15.04
2022-12-08T08:22:15.929Z,14.16
2022-12-08T08:23:02.808Z,13.49
2022-12-08T08:23:36.904Z,13.11
2022-12-08T08:24:27.767Z,13.46
2022-12-08T08:25:08.787Z,13.24
2022-12-08T08:26:03.770Z,12.99
2022-12-08T08:26:59.795Z,12.14
2022-12-08T08:27:54.825Z,12.29
2022-12-08T08:28:52.793Z,12.46
2022-12-08T08:29:46.827Z,12.81
2022-12-08T08:30:33.805Z,13.55
2022-12-08T08:31:08.907Z,13.50
2022-12-08T08:31:56.755Z,13.27
2022-12-08T08:32:30.827Z,13.55
2022-12-08T08:33:17.818Z,13.06
2022-12-08T08:33:52.106Z,13.26
2022-12-08T08:34:38.792Z,13.57
2022-12-08T08:35:15.362Z,13.68
2022-12-08T08:35:58.061Z,13.89
2022-12-08T08:36:39.821Z,14.44
2022-12-08T08:37:20.833Z,14.31
2022-12-08T08:38:00.829Z,13.61
2022-12-08T08:38:42.838Z,13.31
2022-12-08T08:39:22.821Z,13.65
2022-12-08T08:40:03.209Z,13.18
2022-12-08T08:40:43.916Z,13.18
2022-12-08T08:41:24.815Z,13.52
2022-12-08T08:42:18.797Z,13.09
2022-12-08T08:43:16.003Z,12.82
2022-12-08T08:44:09.819Z,12.98
2022-12-08T08:45:03.752Z,12.70
2022-12-08T08:45:57.793Z,12.29
2022-12-08T08:46:44.942Z,11.96
2022-12-08T08:47:18.901Z,12.34
2022-12-08T08:48:06.726Z,12.19
2022-12-08T08:48:40.926Z,11.86
2022-12-08T08:49:27.859Z,11.85
2022-12-08T08:50:02.135Z,11.95
2022-12-08T08:50:49.737Z,12.90
2022-12-08T08:51:26.202Z,12.98
2022-12-08T08:52:06.765Z,13.57
2022-12-08T08:52:47.791Z,13.46
2022-12-08T08:53:28.750Z,12.90
2022-12-08T08:54:08.827Z,12.70
2022-12-08T08:54:48.765Z,12.50
2022-12-08T08:55:29.918Z,13.34
2022-12-08T08:56:11.729Z,13.56
2022-12-08T08:56:52.844Z,14.29
2022-12-08T08:57:33.776Z,14.50
2022-12-08T08:58:14.851Z,13.89
2022-12-08T08:58:56.736Z,13.38
2022-12-08T08:59:36.783Z,13.27
2022-12-08T09:00:18.824Z,13.18
2022-12-08T09:00:58.840Z,12.73
2022-12-08T09:01:38.847Z,12.71
2022-12-08T09:02:25.883Z,12.14
2022-12-08T09:03:06.747Z,12.27
2022-12-08T09:03:46.858Z,11.94
2022-12-08T09:04:28.748Z,11.43
2022-12-08T09:05:08.903Z,11.31
2022-12-08T09:05:48.757Z,11.40
2022-12-08T09:06:29.799Z,11.20
2022-12-08T09:07:09.747Z,11.50
2022-12-08T09:07:49.803Z,11.90
2022-12-08T09:08:30.990Z,11.14
2022-12-08T09:09:11.870Z,11.06
2022-12-08T09:09:53.188Z,11.09
2022-12-08T09:10:37.511Z,11.48
2022-12-08T09:11:19.713Z,11.55
2022-12-08T09:12:00.778Z,12.04
2022-12-08T09:12:41.706Z,11.90
2022-12-08T09:13:22.452Z,11.61
2022-12-08T09:14:02.745Z,11.46
2022-12-08T09:14:42.794Z,11.81
2022-12-08T09:15:23.746Z,11.63
2022-12-08T09:16:03.843Z,11.13
2022-12-08T09:16:44.786Z,11.79
2022-12-08T09:17:24.812Z,11.85
2022-12-08T09:18:07.692Z,11.10
2022-12-08T09:18:49.415Z,11.07
2022-12-08T09:19:30.750Z,11.30
2022-12-08T09:20:14.909Z,10.71
2022-12-08T09:20:55.736Z,10.82
2022-12-08T09:21:38.121Z,11.24
2022-12-08T09:22:17.700Z,11.06
2022-12-08T09:22:57.751Z,10.21
2022-12-08T09:23:37.758Z,10.49
2022-12-08T09:24:17.757Z,10.84
2022-12-08T09:24:57.723Z,10.98
2022-12-08T09:25:37.807Z,10.95
2022-12-08T09:26:18.708Z,11.34
2022-12-08T09:26:58.772Z,11.14
2022-12-08T09:27:38.704Z,11.54
2022-12-08T09:28:19.763Z,10.91
2022-12-08T09:29:01.664Z,10.82
2022-12-08T09:29:41.753Z,10.52
2022-12-08T09:30:22.822Z,10.48
2022-12-08T09:31:03.761Z,10.91
2022-12-08T09:31:44.729Z,11.15
2022-12-08T09:32:26.775Z,11.60
2022-12-08T09:33:06.727Z,11.63
2022-12-08T09:33:47.524Z,11.96
2022-12-08T09:34:27.746Z,12.13
2022-12-08T09:35:08.739Z,11.52
2022-12-08T09:35:48.729Z,11.66
2022-12-08T09:36:29.044Z,12.19
2022-12-08T09:37:09.744Z,12.31
2022-12-08T09:37:49.754Z,12.11
2022-12-08T09:38:29.640Z,11.84
2022-12-08T09:39:09.776Z,11.80
2022-12-08T09:39:50.684Z,11.29
2022-12-08T09:40:31.708Z,11.25
2022-12-08T09:41:30.815Z,11.75
2022-12-08T09:42:13.779Z,12.05
2022-12-08T09:43:15.661Z,11.57
2022-12-08T09:44:22.848Z,11.18
2022-12-08T09:45:17.743Z,11.52
2022-12-08T09:45:58.746Z,11.74
2022-12-08T09:46:40.753Z,11.30
2022-12-08T09:47:36.186Z,11.26
2022-12-08T09:48:32.705Z,10.95